createdAt,value
2019-05-18T00:01:26.289Z,96.70
2019-05-18T00:03:53.508Z,96.80
2019-05-18T00:06:20.774Z,96.80
2019-05-18T00:08:47.960Z,96.70
2019-05-18T00:11:15.142Z,96.80
2019-05-18T00:13:42.340Z,96.90
2019-05-18T00:16:09.547Z,96.80
2019-05-18T00:18:36.735Z,96.90
2019-05-18T00:21:03.997Z,96.90
2019-05-18T00:23:31.316Z,96.90
2019-05-18T00:25:58.592Z,97.10
2019-05-18T00:28:25.889Z,96.90
2019-05-18T00:30:53.096Z,97.00
2019-05-18T00:33:20.276Z,97.00
2019-05-18T00:35:47.473Z,96.90
2019-05-18T00:38:14.677Z,96.90
2019-05-18T00:40:41.856Z,97.00
2019-05-18T00:43:09.053Z,97.00
2019-05-18T00:45:36.258Z,97.00
2019-05-18T00:48:03.443Z,96.90
2019-05-18T00:50:30.632Z,97.00
2019-05-18T00:52:57.921Z,97.00
2019-05-18T00:55:25.104Z,97.10
2019-05-18T00:57:52.284Z,97.00
2019-05-18T01:00:19.531Z,97.10
2019-05-18T01:02:46.850Z,97.00
2019-05-18T01:05:14.124Z,97.30
2019-05-18T01:07:41.336Z,97.20
2019-05-18T01:10:09.548Z,97.30
2019-05-18T01:12:36.744Z,97.20
2019-05-18T01:15:05.545Z,97.20
2019-05-18T01:17:32.743Z,97.20
2019-05-18T01:20:00.354Z,97.20
2019-05-18T01:22:27.564Z,97.20
2019-05-18T01:24:54.748Z,97.20
2019-05-18T01:27:22.004Z,97.30
2019-05-18T01:29:49.196Z,97.10
2019-05-18T01:32:16.404Z,97.30
2019-05-18T01:34:43.717Z,97.30
2019-05-18T01:37:10.925Z,97.30
2019-05-18T01:39:38.108Z,97.40
2019-05-18T01:42:05.300Z,97.40
2019-05-18T01:44:32.488Z,97.30
2019-05-18T01:46:59.696Z,97.40
2019-05-18T01:49:26.902Z,97.30
2019-05-18T01:51:54.509Z,97.20
2019-05-18T01:54:21.687Z,97.20
2019-05-18T01:56:48.890Z,97.30
2019-05-18T01:59:16.088Z,97.10
2019-05-18T02:01:43.293Z,97.10
2019-05-18T02:04:10.497Z,97.00
2019-05-18T02:06:37.697Z,97.20
2019-05-18T02:09:07.238Z,97.10
2019-05-18T02:11:34.703Z,97.50
2019-05-18T02:14:01.968Z,97.40
2019-05-18T02:16:29.221Z,97.30
2019-05-18T02:18:56.416Z,97.40
2019-05-18T02:21:23.608Z,97.50
2019-05-18T02:23:50.800Z,97.60
2019-05-18T02:26:17.976Z,97.50
2019-05-18T02:28:45.173Z,97.40
2019-05-18T02:31:12.354Z,97.40
2019-05-18T02:33:39.565Z,97.30
2019-05-18T02:36:06.754Z,97.50
2019-05-18T02:38:33.928Z,97.50
2019-05-18T02:41:01.529Z,97.60
2019-05-18T02:43:29.124Z,97.60
2019-05-18T02:45:56.313Z,97.40
2019-05-18T02:48:23.506Z,97.60
2019-05-18T02:50:50.698Z,98.10
2019-05-18T02:53:17.974Z,97.70
2019-05-18T02:55:45.200Z,97.70
2019-05-18T02:58:12.405Z,97.70
2019-05-18T03:00:39.569Z,97.70
2019-05-18T03:03:06.772Z,97.70
2019-05-18T03:05:33.969Z,97.80
2019-05-18T03:08:01.272Z,97.80
2019-05-18T03:10:28.863Z,97.80
2019-05-18T03:12:56.141Z,97.80
2019-05-18T03:15:23.327Z,97.70
2019-05-18T03:17:50.593Z,97.50
2019-05-18T03:20:17.778Z,97.50
2019-05-18T03:22:44.972Z,97.60
2019-05-18T03:25:12.195Z,97.70
2019-05-18T03:27:39.485Z,97.80
2019-05-18T03:30:06.981Z,97.80
2019-05-18T03:32:34.153Z,97.80
2019-05-18T03:35:01.375Z,97.80
2019-05-18T03:37:28.840Z,97.80
2019-05-18T03:39:56.014Z,97.80
2019-05-18T03:42:23.201Z,97.90
2019-05-18T03:44:50.498Z,97.90
2019-05-18T03:47:17.772Z,97.90
2019-05-18T03:49:45.000Z,97.90
2019-05-18T03:52:12.185Z,97.80
2019-05-18T03:54:39.376Z,97.90
2019-05-18T03:57:06.629Z,98.30
2019-05-18T03:59:33.946Z,97.90
2019-05-18T04:02:01.114Z,97.80
2019-05-18T04:04:28.430Z,98.00
2019-05-18T04:06:55.636Z,97.90
2019-05-18T04:09:22.866Z,97.80
2019-05-18T04:11:50.124Z,97.70
2019-05-18T04:14:17.293Z,97.80
2019-05-18T04:16:44.597Z,97.70
2019-05-18T04:19:11.772Z,97.60
2019-05-18T04:21:38.978Z,97.70
2019-05-18T04:24:06.164Z,97.90
2019-05-18T04:26:33.357Z,97.60
2019-05-18T04:29:00.554Z,97.80
2019-05-18T04:31:31.943Z,98.10
2019-05-18T04:33:56.952Z,98.10
2019-05-18T04:36:24.137Z,98.30
2019-05-18T04:38:51.322Z,98.10
2019-05-18T04:41:18.619Z,97.80
2019-05-18T04:43:45.905Z,97.80
2019-05-18T04:46:13.181Z,97.70
2019-05-18T04:48:40.554Z,97.70
2019-05-18T04:51:07.838Z,97.80
2019-05-18T04:53:35.024Z,97.80
2019-05-18T04:56:02.537Z,97.70
2019-05-18T04:58:29.716Z,97.90
2019-05-18T05:00:57.008Z,98.10
2019-05-18T05:03:24.198Z,97.90
2019-05-18T05:05:51.426Z,97.90
2019-05-18T05:08:18.736Z,97.80
2019-05-18T05:10:45.924Z,97.80
2019-05-18T05:13:13.100Z,97.70
2019-05-18T05:15:40.289Z,97.80
2019-05-18T05:18:07.482Z,97.80
2019-05-18T05:20:34.813Z,97.90
2019-05-18T05:23:02.008Z,98.30
2019-05-18T05:25:29.212Z,98.20
2019-05-18T05:27:56.410Z,98.20
2019-05-18T05:30:23.593Z,98.00
2019-05-18T05:32:50.789Z,97.90
2019-05-18T05:35:17.993Z,97.90
2019-05-18T05:37:45.200Z,98.20
2019-05-18T05:40:12.417Z,98.10
2019-05-18T05:42:39.733Z,98.20
2019-05-18T05:45:07.333Z,98.00
2019-05-18T05:47:34.653Z,97.90
2019-05-18T05:50:01.991Z,97.90
2019-05-18T05:52:29.284Z,97.60
2019-05-18T05:54:56.491Z,97.90
2019-05-18T05:57:23.831Z,97.90
2019-05-18T05:59:51.018Z,97.90
2019-05-18T06:02:18.206Z,97.80
2019-05-18T06:04:45.418Z,97.80
2019-05-18T06:07:12.644Z,97.80
2019-05-18T06:09:39.861Z,97.80
2019-05-18T06:12:07.079Z,97.60
2019-05-18T06:14:34.295Z,97.70
2019-05-18T06:17:01.477Z,97.80
2019-05-18T06:19:28.680Z,97.70
2019-05-18T06:21:55.948Z,97.80
2019-05-18T06:24:23.210Z,97.70
2019-05-18T06:26:50.478Z,97.80
2019-05-18T06:29:17.660Z,97.50
2019-05-18T06:31:44.861Z,97.70
2019-05-18T06:34:12.044Z,97.80
2019-05-18T06:36:39.354Z,97.60
2019-05-18T06:39:07.261Z,97.20
2019-05-18T06:41:34.428Z,97.30
2019-05-18T06:44:01.905Z,97.20
2019-05-18T06:46:29.085Z,97.30
2019-05-18T06:48:56.269Z,97.20
2019-05-18T06:59:25.104Z,97.30
2019-05-18T07:01:52.313Z,97.30
2019-05-18T07:04:20.059Z,97.40
2019-05-18T07:06:47.296Z,97.40
2019-05-18T07:09:14.602Z,97.40
2019-05-18T07:11:42.061Z,97.60
2019-05-18T07:14:09.396Z,97.20
2019-05-18T07:16:36.773Z,97.20
2019-05-18T07:19:04.069Z,97.00
2019-05-18T07:21:31.272Z,97.00
2019-05-18T07:23:58.488Z,97.00
2019-05-18T07:26:25.831Z,97.10
2019-05-18T07:28:53.036Z,97.20
2019-05-18T07:31:20.529Z,97.20
2019-05-18T07:33:47.725Z,97.10
2019-05-18T07:36:14.930Z,97.50
2019-05-18T07:38:42.140Z,97.20
2019-05-18T07:41:09.344Z,97.90
2019-05-18T07:43:36.554Z,97.40
2019-05-18T07:46:03.724Z,97.30
2019-05-18T07:48:30.928Z,97.00
2019-05-18T07:50:58.112Z,96.70
2019-05-18T07:53:25.321Z,97.10
2019-05-18T07:55:52.528Z,96.50
2019-05-18T07:58:19.728Z,96.00
2019-05-18T08:00:47.107Z,95.60
2019-05-18T08:03:14.291Z,95.60
2019-05-18T08:05:41.477Z,96.20
2019-05-18T08:08:08.693Z,96.00
2019-05-18T08:10:36.845Z,96.00
2019-05-18T08:13:05.201Z,95.40
2019-05-18T08:15:32.617Z,94.90
2019-05-18T08:17:59.804Z,95.60
2019-05-18T08:20:27.000Z,95.30
2019-05-18T08:22:54.187Z,96.20
2019-05-18T08:25:21.411Z,95.30
2019-05-18T08:27:48.596Z,95.40
2019-05-18T08:30:15.913Z,95.50
2019-05-18T08:32:43.192Z,94.80
2019-05-18T08:35:10.392Z,94.90
2019-05-18T08:37:37.639Z,95.80
2019-05-18T08:40:04.988Z,95.20
2019-05-18T08:42:32.233Z,94.60
2019-05-18T08:44:59.514Z,94.20
2019-05-18T08:47:26.713Z,93.90
2019-05-18T08:49:53.910Z,93.60
2019-05-18T08:52:21.092Z,93.80
2019-05-18T08:54:48.276Z,93.90
2019-05-18T08:57:15.488Z,94.50
2019-05-18T08:59:42.688Z,93.60
2019-05-18T09:02:09.912Z,93.90
2019-05-18T09:04:37.098Z,94.20
2019-05-18T09:07:04.284Z,93.60
2019-05-18T09:09:31.480Z,93.50
2019-05-18T09:11:58.716Z,93.80
2019-05-18T09:14:25.933Z,93.60
2019-05-18T09:16:53.132Z,93.40
2019-05-18T09:19:20.352Z,93.90
2019-05-18T09:21:48.599Z,93.80
2019-05-18T09:24:15.884Z,93.70
2019-05-18T09:26:43.078Z,93.60
2019-05-18T09:29:10.272Z,93.30
2019-05-18T09:31:37.472Z,93.40
2019-05-18T09:34:04.668Z,93.40
2019-05-18T09:36:31.869Z,93.50
2019-05-18T09:38:59.169Z,93.20
2019-05-18T09:41:26.373Z,93.80
2019-05-18T09:43:53.597Z,93.60
2019-05-18T09:46:21.412Z,93.80
2019-05-18T09:48:48.616Z,94.10
2019-05-18T09:51:15.796Z,94.20
2019-05-18T09:53:51.122Z,94.40
2019-05-18T09:56:12.100Z,94.70
2019-05-18T09:58:39.433Z,94.60
2019-05-18T10:01:06.671Z,94.00
2019-05-18T10:03:33.969Z,93.60
2019-05-18T10:06:01.144Z,93.30
2019-05-18T10:08:28.340Z,93.80
2019-05-18T10:10:55.554Z,93.70
2019-05-18T10:13:22.796Z,93.20
2019-05-18T10:15:50.035Z,93.70
2019-05-18T10:18:17.234Z,93.50
2019-05-18T10:20:44.448Z,93.20
2019-05-18T10:23:13.566Z,93.20
2019-05-18T10:25:40.731Z,93.30
2019-05-18T10:28:07.924Z,93.80
2019-05-18T10:30:35.213Z,93.00
2019-05-18T10:33:02.501Z,93.30
2019-05-18T10:35:29.808Z,93.50
2019-05-18T10:37:57.004Z,93.70
2019-05-18T10:40:24.244Z,93.30
2019-05-18T10:42:51.424Z,93.10
2019-05-18T10:45:18.612Z,93.20
2019-05-18T10:47:45.835Z,93.50
2019-05-18T10:50:13.010Z,93.20
2019-05-18T10:52:40.202Z,92.70
2019-05-18T10:55:07.792Z,92.40
2019-05-18T10:57:34.968Z,93.00
2019-05-18T11:00:03.257Z,93.60
2019-05-18T11:02:30.555Z,93.10
2019-05-18T11:04:57.844Z,93.00
2019-05-18T11:07:25.033Z,93.20
2019-05-18T11:09:52.226Z,93.00
2019-05-18T11:12:19.401Z,92.60
2019-05-18T11:14:46.588Z,92.50
2019-05-18T11:17:14.085Z,93.10
2019-05-18T11:19:41.268Z,92.80
2019-05-18T11:22:08.452Z,93.00
2019-05-18T11:24:35.660Z,92.80
2019-05-18T11:27:02.896Z,92.80
2019-05-18T11:29:30.089Z,92.70
2019-05-18T11:31:57.380Z,93.00
2019-05-18T11:34:24.618Z,92.80
2019-05-18T11:36:51.816Z,93.50
2019-05-18T11:39:19.025Z,92.80
2019-05-18T11:41:46.324Z,92.70
2019-05-18T11:44:13.514Z,93.10
2019-05-18T11:46:40.737Z,92.90
2019-05-18T11:49:08.183Z,92.90
2019-05-18T11:51:35.390Z,93.00
2019-05-18T11:54:02.664Z,93.20
2019-05-18T11:56:29.900Z,93.80
2019-05-18T11:58:57.488Z,93.50
2019-05-18T12:01:24.809Z,93.40
2019-05-18T12:03:52.009Z,93.40
2019-05-18T12:06:19.253Z,93.50
2019-05-18T12:08:46.449Z,93.10
2019-05-18T12:11:13.720Z,93.00
2019-05-18T12:13:40.928Z,92.80
2019-05-18T12:16:08.145Z,92.60
2019-05-18T12:18:35.368Z,93.30
2019-05-18T12:21:02.668Z,93.20
2019-05-18T12:23:29.858Z,92.30
2019-05-18T12:25:57.056Z,92.70
2019-05-18T12:28:24.276Z,92.00
2019-05-18T12:30:51.483Z,92.00
2019-05-18T12:33:18.769Z,91.80
2019-05-18T12:35:45.980Z,92.40
2019-05-18T12:38:13.177Z,91.80
2019-05-18T12:40:40.349Z,91.60
2019-05-18T12:43:07.558Z,91.80
2019-05-18T12:45:34.856Z,91.60
2019-05-18T12:48:02.090Z,92.10
2019-05-18T12:50:29.296Z,91.50
2019-05-18T12:52:56.745Z,91.80
2019-05-18T12:55:23.921Z,92.00
2019-05-18T12:57:51.247Z,92.30
2019-05-18T13:00:19.465Z,92.20
2019-05-18T13:02:46.672Z,92.30
2019-05-18T13:05:13.923Z,92.00
2019-05-18T13:07:41.117Z,92.20
2019-05-18T13:10:09.752Z,92.30
2019-05-18T13:12:36.966Z,92.00
2019-05-18T13:15:05.124Z,92.10
2019-05-18T13:17:32.301Z,91.30
2019-05-18T13:19:59.508Z,92.10
2019-05-18T13:22:26.693Z,92.10
2019-05-18T13:24:53.870Z,92.10
2019-05-18T13:27:21.048Z,92.20
2019-05-18T13:29:48.248Z,92.10
2019-05-18T13:32:15.428Z,92.10
2019-05-18T13:34:42.616Z,91.40
2019-05-18T13:37:09.816Z,91.80
2019-05-18T13:39:37.027Z,91.90
2019-05-18T13:42:04.236Z,92.10
2019-05-18T13:44:31.530Z,91.50
2019-05-18T13:46:58.726Z,92.20
2019-05-18T13:49:26.020Z,92.00
2019-05-18T13:51:53.207Z,91.70
2019-05-18T13:54:20.409Z,91.90
2019-05-18T13:56:47.619Z,91.70
2019-05-18T13:59:14.824Z,91.60
2019-05-18T14:01:41.994Z,91.60
2019-05-18T14:04:09.185Z,91.50
2019-05-18T14:06:36.682Z,91.70
2019-05-18T14:09:05.341Z,91.50
2019-05-18T14:11:32.541Z,92.00
2019-05-18T14:13:59.732Z,92.00
2019-05-18T14:16:26.916Z,91.50
2019-05-18T14:18:54.100Z,91.70
2019-05-18T14:21:21.314Z,90.80
2019-05-18T14:23:48.584Z,91.40
2019-05-18T14:26:15.773Z,91.10
2019-05-18T14:28:42.984Z,91.70
2019-05-18T14:31:10.177Z,90.90
2019-05-18T14:33:37.382Z,91.10
2019-05-18T14:36:04.577Z,90.70
2019-05-18T14:38:31.752Z,91.10
2019-05-18T14:40:58.937Z,91.30
2019-05-18T14:43:26.121Z,90.70
2019-05-18T14:45:53.325Z,91.10
2019-05-18T14:48:20.526Z,91.10
2019-05-18T14:50:47.729Z,90.70
2019-05-18T14:53:14.900Z,90.90
2019-05-18T14:55:42.092Z,91.00
2019-05-18T14:58:09.281Z,90.80
2019-05-18T15:00:36.548Z,90.70
2019-05-18T15:03:03.749Z,90.20
2019-05-18T15:05:30.964Z,90.40
2019-05-18T15:07:58.156Z,90.60
2019-05-18T15:10:25.397Z,90.60
2019-05-18T15:12:52.617Z,91.00
2019-05-18T15:15:19.826Z,90.90
2019-05-18T15:17:47.034Z,90.30
2019-05-18T15:20:14.465Z,90.60
2019-05-18T15:22:41.676Z,90.60
2019-05-18T15:25:09.061Z,90.30
2019-05-18T15:27:36.252Z,90.70
2019-05-18T15:30:04.063Z,90.60
2019-05-18T15:32:31.256Z,91.10
2019-05-18T15:34:58.440Z,90.40
2019-05-18T15:37:25.631Z,90.70
2019-05-18T15:39:53.126Z,91.00
2019-05-18T15:42:20.324Z,91.10
2019-05-18T15:44:47.492Z,91.30
2019-05-18T15:47:14.692Z,91.20
2019-05-18T15:49:41.984Z,91.20
2019-05-18T15:52:09.276Z,91.40
2019-05-18T15:54:36.448Z,91.70
2019-05-18T15:57:03.647Z,91.40
2019-05-18T15:59:30.825Z,91.60
2019-05-18T16:01:58.009Z,91.60
2019-05-18T16:04:25.203Z,91.40
2019-05-18T16:06:52.681Z,91.50
2019-05-18T16:09:20.365Z,91.70
2019-05-18T16:11:47.558Z,91.20
2019-05-18T16:14:14.736Z,91.10
2019-05-18T16:16:42.029Z,91.20
2019-05-18T16:19:09.341Z,91.00
2019-05-18T16:21:36.521Z,91.10
2019-05-18T16:24:03.756Z,91.00
2019-05-18T16:26:30.949Z,91.30
2019-05-18T16:28:58.148Z,91.00
2019-05-18T16:31:25.353Z,91.30
2019-05-18T16:33:52.545Z,91.60
2019-05-18T16:36:19.724Z,91.80
2019-05-18T16:38:46.913Z,91.40
2019-05-18T16:41:14.109Z,91.60
2019-05-18T16:43:41.316Z,91.90
2019-05-18T16:46:08.514Z,91.90
2019-05-18T16:48:39.271Z,91.40
2019-05-18T16:51:04.808Z,91.30
2019-05-18T16:53:32.005Z,91.40
2019-05-18T16:55:59.207Z,91.50
2019-05-18T16:58:26.413Z,91.30
2019-05-18T17:00:53.614Z,91.10
2019-05-18T17:03:20.824Z,91.60
2019-05-18T17:05:48.008Z,91.50
2019-05-18T17:08:15.199Z,91.70
2019-05-18T17:10:42.397Z,91.90
2019-05-18T17:13:09.605Z,92.00
2019-05-18T17:15:36.812Z,91.80
2019-05-18T17:18:04.027Z,91.90
2019-05-18T17:20:31.269Z,91.80
2019-05-18T17:22:58.461Z,92.00
2019-05-18T17:25:25.685Z,92.00
2019-05-18T17:27:52.859Z,92.20
2019-05-18T17:30:20.285Z,92.20
2019-05-18T17:32:47.502Z,92.10
2019-05-18T17:35:15.002Z,92.10
2019-05-18T17:37:42.208Z,92.20
2019-05-18T17:40:10.256Z,92.40
2019-05-18T17:42:37.450Z,92.40
2019-05-18T17:45:04.942Z,92.40
2019-05-18T17:47:32.141Z,92.50
2019-05-18T17:49:59.338Z,92.60
2019-05-18T17:52:26.537Z,92.90
2019-05-18T17:54:53.733Z,92.80
2019-05-18T17:57:20.925Z,93.00
2019-05-18T17:59:49.633Z,93.00
2019-05-18T18:02:17.481Z,93.10
2019-05-18T18:04:44.672Z,93.10
2019-05-18T18:07:11.882Z,93.10
2019-05-18T18:09:39.084Z,93.00
2019-05-18T18:12:07.046Z,93.50
2019-05-18T18:14:34.234Z,93.40
2019-05-18T18:17:01.459Z,93.40
2019-05-18T18:19:28.717Z,93.40
2019-05-18T18:21:56.904Z,93.30
2019-05-18T18:24:24.100Z,93.30
2019-05-18T18:26:51.284Z,93.40
2019-05-18T18:29:18.482Z,93.30
2019-05-18T18:31:45.732Z,93.40
2019-05-18T18:34:12.916Z,93.40
2019-05-18T18:36:40.374Z,93.30
2019-05-18T18:39:07.852Z,93.80
2019-05-18T18:41:35.149Z,93.50
2019-05-18T18:44:02.354Z,93.70
2019-05-18T18:46:29.549Z,93.80
2019-05-18T18:48:56.738Z,93.80
2019-05-18T18:51:23.976Z,93.90
2019-05-18T18:53:51.336Z,94.00
2019-05-18T18:56:18.580Z,94.20
2019-05-18T18:58:45.777Z,94.20
2019-05-18T19:01:13.014Z,94.30
2019-05-18T19:03:40.223Z,94.30
2019-05-18T19:06:07.492Z,94.40
2019-05-18T19:08:34.710Z,94.40
2019-05-18T19:11:01.968Z,94.40
2019-05-18T19:13:29.173Z,94.40
2019-05-18T19:15:56.389Z,94.40
2019-05-18T19:18:23.587Z,94.50
2019-05-18T19:20:50.865Z,94.70
2019-05-18T19:23:19.018Z,95.00
2019-05-18T19:25:46.194Z,94.70
2019-05-18T19:28:13.392Z,94.70
2019-05-18T19:30:40.588Z,94.90
2019-05-18T19:33:07.894Z,94.90
2019-05-18T19:35:35.108Z,95.10
2019-05-18T19:38:02.376Z,95.00
2019-05-18T19:40:29.652Z,95.00
2019-05-18T19:42:57.038Z,94.90
2019-05-18T19:45:24.300Z,94.90
2019-05-18T19:47:51.520Z,95.00
2019-05-18T19:50:18.881Z,95.00
2019-05-18T19:52:46.085Z,95.20
2019-05-18T19:55:13.364Z,95.10
2019-05-18T19:57:40.556Z,95.20
2019-05-18T20:00:08.461Z,95.40
2019-05-18T20:02:35.674Z,95.50
2019-05-18T20:05:07.907Z,95.50
2019-05-18T20:07:32.118Z,95.60
2019-05-18T20:09:59.305Z,95.60
2019-05-18T20:12:26.497Z,95.80
2019-05-18T20:14:53.694Z,95.80
2019-05-18T20:17:20.892Z,95.80
2019-05-18T20:19:48.085Z,95.70
2019-05-18T20:22:15.292Z,95.60
2019-05-18T20:24:43.593Z,95.70
2019-05-18T20:27:10.788Z,95.60
2019-05-18T20:29:38.009Z,95.50
2019-05-18T20:32:05.180Z,95.50
2019-05-18T20:34:32.701Z,95.50
2019-05-18T20:36:59.887Z,95.40
2019-05-18T20:39:27.509Z,95.80
2019-05-18T20:41:54.798Z,95.50
2019-05-18T20:44:22.054Z,95.40
2019-05-18T20:46:49.268Z,95.40
2019-05-18T20:49:16.458Z,95.40
2019-05-18T20:51:43.640Z,95.30
2019-05-18T20:54:10.937Z,95.50
2019-05-18T20:56:38.185Z,95.40
2019-05-18T20:59:05.377Z,95.60
2019-05-18T21:01:32.745Z,95.70
2019-05-18T21:03:59.945Z,95.80
2019-05-18T21:06:27.133Z,95.60
2019-05-18T21:08:54.352Z,95.70
2019-05-18T21:11:21.640Z,95.80
2019-05-18T21:13:48.858Z,96.00
2019-05-18T21:16:16.047Z,95.80
2019-05-18T21:18:43.349Z,95.80
2019-05-18T21:21:10.551Z,95.70
2019-05-18T21:23:37.760Z,95.60
2019-05-18T21:26:04.968Z,95.60
2019-05-18T21:28:32.164Z,96.00
2019-05-18T21:30:59.357Z,96.00
2019-05-18T21:33:26.551Z,96.20
2019-05-18T21:35:53.737Z,96.30
2019-05-18T21:38:20.988Z,96.40
2019-05-18T21:40:48.176Z,96.40
2019-05-18T21:43:15.384Z,96.90
2019-05-18T21:45:42.574Z,96.90
2019-05-18T21:48:09.754Z,97.00
2019-05-18T21:50:36.941Z,97.10
2019-05-18T21:53:04.120Z,97.20
2019-05-18T21:55:31.317Z,97.20
2019-05-18T21:57:58.505Z,97.30
2019-05-18T22:00:26.198Z,97.40
2019-05-18T22:02:53.499Z,97.40
2019-05-18T22:05:20.684Z,97.60
2019-05-18T22:07:47.872Z,97.70
2019-05-18T22:10:25.420Z,97.90
2019-05-18T22:12:44.143Z,98.00
2019-05-18T22:15:11.830Z,97.80
2019-05-18T22:17:56.933Z,97.70
2019-05-18T22:20:24.122Z,97.50
2019-05-18T22:22:51.317Z,97.80
2019-05-18T22:25:18.492Z,98.10
2019-05-18T22:27:45.686Z,98.20
2019-05-18T22:30:12.961Z,98.10
2019-05-18T22:32:40.182Z,98.40
2019-05-18T22:35:07.360Z,98.20
2019-05-18T22:37:34.558Z,98.10
2019-05-18T22:40:01.939Z,98.20
2019-05-18T22:42:29.296Z,98.10
2019-05-18T22:44:56.490Z,98.30
2019-05-18T22:47:23.674Z,98.20
2019-05-18T22:49:50.874Z,98.40
2019-05-18T22:52:18.080Z,98.30
2019-05-18T22:54:45.265Z,98.10
2019-05-18T22:57:12.441Z,98.30
2019-05-18T22:59:39.628Z,98.20
2019-05-18T23:02:06.833Z,98.40
2019-05-18T23:04:34.066Z,98.40
2019-05-18T23:07:01.345Z,98.20
2019-05-18T23:09:28.538Z,98.30
2019-05-18T23:11:55.812Z,98.30
2019-05-18T23:14:23.001Z,98.10
2019-05-18T23:16:50.185Z,97.90
2019-05-18T23:19:17.384Z,97.60
2019-05-18T23:21:44.584Z,97.50
2019-05-18T23:24:11.798Z,97.40
2019-05-18T23:26:39.069Z,97.40
2019-05-18T23:29:06.286Z,97.60
2019-05-18T23:31:33.484Z,97.40
2019-05-18T23:34:00.689Z,97.50
2019-05-18T23:36:27.892Z,97.40
2019-05-18T23:38:55.128Z,97.20
2019-05-18T23:41:22.404Z,97.10
2019-05-18T23:43:49.608Z,97.10
2019-05-18T23:46:16.804Z,97.30
2019-05-18T23:48:44.015Z,97.30
2019-05-18T23:51:11.297Z,97.20
2019-05-18T23:53:38.496Z,97.30
2019-05-18T23:56:05.676Z,97.20
2019-05-18T23:58:32.949Z,97.20
